Terminal Aerodrome Forecast
Issued by NWS

Home | Current Version | Previous Version | Text Only | Print | Product List | Glossary On
Versions: 1 2 3 4 5 6 7 8 9 10 11 12 13 14 15 16 17 18 19 20 21 22 23
000
FTUS41 KOKX 252300 RRA
TAFSWF
TAF
KSWF 252357Z 2600/2706 VRB03KT P6SM BKN250
     FM260900 VRB05KT P6SM BKN040
     FM261200 07005KT P6SM BKN030
      TEMPO 2613/2616 3SM -SN BR BKN015
     FM261600 06008KT 1SM -SN BR BKN007
     FM261900 04012KT 3/4SM -SN BR BKN007
     FM262300 03014G24KT 1/2SM SN FZFG VV005
     FM270200 02018G33KT 1/2SM SN FZFG VV005
      AMD NOT SKED=

USA.gov is the U.S. government's official web portal to all federal, state and local government web resources and services.